sensor_id;sensor_type;location;lat;lon;timestamp;pressure;altitude;pressure_sealevel;temperature;humidity
28432;BME280;15664;51.302;7.744;2023-03-04T00:01:14;83690.78;;;-146.98;96.17
28432;BME280;15664;51.302;7.744;2023-03-04T00:03:40;83696.91;;;-146.98;96.10
28432;BME280;15664;51.302;7.744;2023-03-04T00:06:06;83666.34;;;-146.98;96.20
28432;BME280;15664;51.302;7.744;2023-03-04T00:08:32;83694.88;;;-146.98;96.34
28432;BME280;15664;51.302;7.744;2023-03-04T00:10:58;83707.09;;;-146.98;96.32
28432;BME280;15664;51.302;7.744;2023-03-04T00:13:24;83670.44;;;-146.98;96.28
28432;BME280;15664;51.302;7.744;2023-03-04T00:15:49;83715.22;;;-146.98;95.47
28432;BME280;15664;51.302;7.744;2023-03-04T00:18:15;83709.13;;;-146.98;95.17
28432;BME280;15664;51.302;7.744;2023-03-04T00:20:41;83682.66;;;-146.98;95.41
28432;BME280;15664;51.302;7.744;2023-03-04T00:23:06;83637.84;;;-146.98;95.43
28432;BME280;15664;51.302;7.744;2023-03-04T00:25:32;83709.13;;;-146.98;95.48
28432;BME280;15664;51.302;7.744;2023-03-04T00:27:58;83676.53;;;-146.98;95.03
28432;BME280;15664;51.302;7.744;2023-03-04T00:30:24;83711.16;;;-146.98;94.98
28432;BME280;15664;51.302;7.744;2023-03-04T00:32:50;83668.38;;;-146.98;94.80
28432;BME280;15664;51.302;7.744;2023-03-04T00:35:15;83715.22;;;-146.98;94.73
28432;BME280;15664;51.302;7.744;2023-03-04T00:37:41;83678.56;;;-146.98;94.52
28432;BME280;15664;51.302;7.744;2023-03-04T00:40:09;83682.66;;;-146.98;94.43
28432;BME280;15664;51.302;7.744;2023-03-04T00:42:35;83676.53;;;-146.98;94.48
28432;BME280;15664;51.302;7.744;2023-03-04T00:45:01;83658.19;;;-146.98;94.65
28432;BME280;15664;51.302;7.744;2023-03-04T00:47:26;83670.44;;;-146.98;94.65
28432;BME280;15664;51.302;7.744;2023-03-04T00:49:52;83666.34;;;-146.98;94.74
28432;BME280;15664;51.302;7.744;2023-03-04T00:52:18;83696.91;;;-146.98;94.47
28432;BME280;15664;51.302;7.744;2023-03-04T00:54:43;83648.03;;;-146.98;94.47
28432;BME280;15664;51.302;7.744;2023-03-04T00:57:09;83707.09;;;-146.98;94.23
28432;BME280;15664;51.302;7.744;2023-03-04T00:59:34;83672.47;;;-146.98;94.03
28432;BME280;15664;51.302;7.744;2023-03-04T01:02:00;83680.59;;;-146.98;94.16
28432;BME280;15664;51.302;7.744;2023-03-04T01:04:26;83690.78;;;-146.98;94.06
28432;BME280;15664;51.302;7.744;2023-03-04T01:06:51;83694.88;;;-146.98;94.14
28432;BME280;15664;51.302;7.744;2023-03-04T01:09:17;83696.91;;;-146.98;94.36
28432;BME280;15664;51.302;7.744;2023-03-04T01:11:43;83664.31;;;-146.98;94.24
28432;BME280;15664;51.302;7.744;2023-03-04T01:14:09;83715.22;;;-146.98;93.89
28432;BME280;15664;51.302;7.744;2023-03-04T01:16:35;83698.94;;;-146.98;93.86
28432;BME280;15664;51.302;7.744;2023-03-04T01:19:00;83666.34;;;-146.98;93.54
28432;BME280;15664;51.302;7.744;2023-03-04T01:21:26;83654.13;;;-146.98;93.11
28432;BME280;15664;51.302;7.744;2023-03-04T01:23:51;83654.13;;;-146.98;93.38
28432;BME280;15664;51.302;7.744;2023-03-04T01:26:17;83715.22;;;-146.98;93.17
28432;BME280;15664;51.302;7.744;2023-03-04T01:28:43;83666.34;;;-146.98;93.51
28432;BME280;15664;51.302;7.744;2023-03-04T01:31:08;83668.38;;;-146.98;93.24
28432;BME280;15664;51.302;7.744;2023-03-04T01:33:33;83656.16;;;-146.98;93.22
28432;BME280;15664;51.302;7.744;2023-03-04T01:35:59;83641.91;;;-146.98;93.11
28432;BME280;15664;51.302;7.744;2023-03-04T01:38:25;83694.88;;;-146.98;92.89
28432;BME280;15664;51.302;7.744;2023-03-04T01:40:51;83645.97;;;-146.98;93.13
28432;BME280;15664;51.302;7.744;2023-03-04T01:43:21;83678.56;;;-146.98;93.42
28432;BME280;15664;51.302;7.744;2023-03-04T01:45:48;83711.16;;;-146.98;93.36
28432;BME280;15664;51.302;7.744;2023-03-04T01:48:17;83707.09;;;-146.98;93.51
28432;BME280;15664;51.302;7.744;2023-03-04T01:50:45;83680.59;;;-146.98;93.40
28432;BME280;15664;51.302;7.744;2023-03-04T01:53:20;83707.09;;;-146.98;93.55
28432;BME280;15664;51.302;7.744;2023-03-04T01:55:47;83682.66;;;-146.98;93.63
28432;BME280;15664;51.302;7.744;2023-03-04T01:58:13;83715.22;;;-146.98;94.01
28432;BME280;15664;51.302;7.744;2023-03-04T02:00:39;83698.94;;;-146.98;93.80
28432;BME280;15664;51.302;7.744;2023-03-04T02:03:15;83733.56;;;-146.98;93.33
28432;BME280;15664;51.302;7.744;2023-03-04T02:05:44;83682.66;;;-146.98;93.25
28432;BME280;15664;51.302;7.744;2023-03-04T02:08:11;83688.75;;;-146.98;93.11
28432;BME280;15664;51.302;7.744;2023-03-04T02:10:41;83686.72;;;-146.98;93.16
28432;BME280;15664;51.302;7.744;2023-03-04T02:13:07;83686.72;;;-146.98;93.17
28432;BME280;15664;51.302;7.744;2023-03-04T02:15:33;83690.78;;;-146.98;93.11
28432;BME280;15664;51.302;7.744;2023-03-04T02:17:59;83678.56;;;-146.98;92.90
28432;BME280;15664;51.302;7.744;2023-03-04T02:20:45;83713.19;;;-146.98;92.91
28432;BME280;15664;51.302;7.744;2023-03-04T02:23:18;83743.75;;;-146.98;93.06
28432;BME280;15664;51.302;7.744;2023-03-04T02:26:17;83739.66;;;-146.98;93.37
28432;BME280;15664;51.302;7.744;2023-03-04T02:28:50;83682.66;;;-146.98;93.37
28432;BME280;15664;51.302;7.744;2023-03-04T02:31:24;83682.66;;;-146.98;93.44
28432;BME280;15664;51.302;7.744;2023-03-04T02:33:51;83774.28;;;-146.98;93.47
28432;BME280;15664;51.302;7.744;2023-03-04T02:36:18;83715.22;;;-146.98;93.22
28432;BME280;15664;51.302;7.744;2023-03-04T02:38:44;83678.56;;;-146.98;93.12
28432;BME280;15664;51.302;7.744;2023-03-04T02:41:15;83709.13;;;-146.98;93.13
28432;BME280;15664;51.302;7.744;2023-03-04T02:43:45;83707.09;;;-146.98;93.20
28432;BME280;15664;51.302;7.744;2023-03-04T02:46:12;83658.19;;;-146.98;93.01
28432;BME280;15664;51.302;7.744;2023-03-04T02:48:38;83682.66;;;-146.98;93.13
28432;BME280;15664;51.302;7.744;2023-03-04T02:51:04;83682.66;;;-146.98;93.18
28432;BME280;15664;51.302;7.744;2023-03-04T02:53:31;83707.09;;;-146.98;92.99
28432;BME280;15664;51.302;7.744;2023-03-04T02:55:57;83666.34;;;-146.98;93.06
28432;BME280;15664;51.302;7.744;2023-03-04T02:58:23;83680.59;;;-146.98;92.98
28432;BME280;15664;51.302;7.744;2023-03-04T03:00:48;83703.00;;;-146.98;93.11
28432;BME280;15664;51.302;7.744;2023-03-04T03:03:14;83694.88;;;-146.98;93.13
28432;BME280;15664;51.302;7.744;2023-03-04T03:05:40;83670.44;;;-146.98;93.13
28432;BME280;15664;51.302;7.744;2023-03-04T03:08:06;83627.66;;;-146.98;93.05
28432;BME280;15664;51.302;7.744;2023-03-04T03:10:32;83709.13;;;-146.98;92.90
28432;BME280;15664;51.302;7.744;2023-03-04T03:12:58;83664.31;;;-146.98;92.73
28432;BME280;15664;51.302;7.744;2023-03-04T03:15:24;83650.06;;;-146.98;92.93
28432;BME280;15664;51.302;7.744;2023-03-04T03:17:50;83680.59;;;-146.98;92.98
28432;BME280;15664;51.302;7.744;2023-03-04T03:20:17;83698.94;;;-146.98;92.94
28432;BME280;15664;51.302;7.744;2023-03-04T03:22:43;83658.19;;;-146.98;93.01
28432;BME280;15664;51.302;7.744;2023-03-04T03:25:10;83711.16;;;-146.98;93.02
28432;BME280;15664;51.302;7.744;2023-03-04T03:27:36;83688.75;;;-146.98;93.03
28432;BME280;15664;51.302;7.744;2023-03-04T03:30:03;83715.22;;;-146.98;92.95
28432;BME280;15664;51.302;7.744;2023-03-04T03:32:28;83688.75;;;-146.98;93.10
28432;BME280;15664;51.302;7.744;2023-03-04T03:34:54;83686.72;;;-146.98;93.20
28432;BME280;15664;51.302;7.744;2023-03-04T03:37:20;83674.50;;;-146.98;93.33
28432;BME280;15664;51.302;7.744;2023-03-04T03:39:46;83662.28;;;-146.98;93.34
28432;BME280;15664;51.302;7.744;2023-03-04T03:42:11;83705.03;;;-146.98;93.44
28432;BME280;15664;51.302;7.744;2023-03-04T03:44:37;83648.03;;;-146.98;93.25
28432;BME280;15664;51.302;7.744;2023-03-04T03:47:02;83678.56;;;-146.98;93.19
28432;BME280;15664;51.302;7.744;2023-03-04T03:49:28;83698.94;;;-146.98;93.39
28432;BME280;15664;51.302;7.744;2023-03-04T03:51:54;83670.44;;;-146.98;93.52
28432;BME280;15664;51.302;7.744;2023-03-04T03:54:19;83678.56;;;-146.98;93.42
28432;BME280;15664;51.302;7.744;2023-03-04T03:56:45;83662.28;;;-146.98;93.37
28432;BME280;15664;51.302;7.744;2023-03-04T03:59:10;83721.34;;;-146.98;93.48
28432;BME280;15664;51.302;7.744;2023-03-04T04:01:35;83645.97;;;-146.98;93.58
28432;BME280;15664;51.302;7.744;2023-03-04T04:04:01;83637.84;;;-146.98;93.31
28432;BME280;15664;51.302;7.744;2023-03-04T04:06:27;83686.72;;;-146.98;93.04
28432;BME280;15664;51.302;7.744;2023-03-04T04:08:53;83650.06;;;-146.98;92.96
28432;BME280;15664;51.302;7.744;2023-03-04T04:11:18;83678.56;;;-146.98;92.64
28432;BME280;15664;51.302;7.744;2023-03-04T04:13:43;83668.38;;;-146.98;92.43
28432;BME280;15664;51.302;7.744;2023-03-04T04:16:10;83690.78;;;-146.98;92.41
28432;BME280;15664;51.302;7.744;2023-03-04T04:18:35;83672.47;;;-146.98;92.48
28432;BME280;15664;51.302;7.744;2023-03-04T04:21:02;83686.72;;;-146.98;92.55
28432;BME280;15664;51.302;7.744;2023-03-04T04:23:28;83662.28;;;-146.98;92.57
28432;BME280;15664;51.302;7.744;2023-03-04T04:25:54;83682.66;;;-146.98;92.95
28432;BME280;15664;51.302;7.744;2023-03-04T04:28:19;83633.75;;;-146.98;92.91
28432;BME280;15664;51.302;7.744;2023-03-04T04:30:45;83686.72;;;-146.98;92.79
28432;BME280;15664;51.302;7.744;2023-03-04T04:33:11;83678.56;;;-146.98;92.90
28432;BME280;15664;51.302;7.744;2023-03-04T04:35:37;83676.53;;;-146.98;93.02
28432;BME280;15664;51.302;7.744;2023-03-04T04:38:06;83715.22;;;-146.98;93.04
28432;BME280;15664;51.302;7.744;2023-03-04T04:40:31;83662.28;;;-146.98;92.68
28432;BME280;15664;51.302;7.744;2023-03-04T04:42:57;83682.66;;;-146.98;92.73
28432;BME280;15664;51.302;7.744;2023-03-04T04:45:23;83688.75;;;-146.98;92.88
28432;BME280;15664;51.302;7.744;2023-03-04T04:47:50;83650.06;;;-146.98;92.96
28432;BME280;15664;51.302;7.744;2023-03-04T04:50:15;83684.69;;;-146.98;93.18
28432;BME280;15664;51.302;7.744;2023-03-04T04:52:41;83658.19;;;-146.98;93.37
28432;BME280;15664;51.302;7.744;2023-03-04T04:55:07;83578.78;;;-146.98;93.02
28432;BME280;15664;51.302;7.744;2023-03-04T04:57:33;83686.72;;;-146.98;93.04
28432;BME280;15664;51.302;7.744;2023-03-04T04:59:59;83662.28;;;-146.98;93.23
28432;BME280;15664;51.302;7.744;2023-03-04T05:02:24;83682.66;;;-146.98;93.13
28432;BME280;15664;51.302;7.744;2023-03-04T05:04:49;83670.44;;;-146.98;93.08
28432;BME280;15664;51.302;7.744;2023-03-04T05:07:15;83707.09;;;-146.98;93.24
28432;BME280;15664;51.302;7.744;2023-03-04T05:09:40;83688.75;;;-146.98;93.60
28432;BME280;15664;51.302;7.744;2023-03-04T05:12:06;83674.50;;;-146.98;93.56
28432;BME280;15664;51.302;7.744;2023-03-04T05:14:31;83645.97;;;-146.98;93.46
28432;BME280;15664;51.302;7.744;2023-03-04T05:16:57;83698.94;;;-146.98;93.53
28432;BME280;15664;51.302;7.744;2023-03-04T05:19:24;83707.09;;;-146.98;93.39
28432;BME280;15664;51.302;7.744;2023-03-04T05:21:49;83672.47;;;-146.98;93.38
28432;BME280;15664;51.302;7.744;2023-03-04T05:24:15;83662.28;;;-146.98;93.52
28432;BME280;15664;51.302;7.744;2023-03-04T05:26:40;83690.78;;;-146.98;93.35
28432;BME280;15664;51.302;7.744;2023-03-04T05:29:06;83715.22;;;-146.98;93.71
28432;BME280;15664;51.302;7.744;2023-03-04T05:31:32;83735.59;;;-146.98;94.12
28432;BME280;15664;51.302;7.744;2023-03-04T05:33:57;83674.50;;;-146.98;94.05
28432;BME280;15664;51.302;7.744;2023-03-04T05:36:23;83674.50;;;-146.98;93.81
28432;BME280;15664;51.302;7.744;2023-03-04T05:38:48;83678.56;;;-146.98;93.86
28432;BME280;15664;51.302;7.744;2023-03-04T05:41:14;83688.75;;;-146.98;93.98
28432;BME280;15664;51.302;7.744;2023-03-04T05:43:40;83660.25;;;-146.98;93.97
28432;BME280;15664;51.302;7.744;2023-03-04T05:46:10;83666.34;;;-146.98;93.92
28432;BME280;15664;51.302;7.744;2023-03-04T05:48:37;83676.53;;;-146.98;94.09
28432;BME280;15664;51.302;7.744;2023-03-04T05:51:03;83631.72;;;-146.98;94.31
28432;BME280;15664;51.302;7.744;2023-03-04T05:53:28;83739.66;;;-146.98;94.55
28432;BME280;15664;51.302;7.744;2023-03-04T05:55:54;83670.44;;;-146.98;94.62
28432;BME280;15664;51.302;7.744;2023-03-04T05:58:20;83643.94;;;-146.98;94.86
28432;BME280;15664;51.302;7.744;2023-03-04T06:00:46;83650.06;;;-146.98;95.04
28432;BME280;15664;51.302;7.744;2023-03-04T06:03:17;83694.88;;;-146.98;95.32
28432;BME280;15664;51.302;7.744;2023-03-04T06:06:08;83727.44;;;-146.98;95.45
28432;BME280;15664;51.302;7.744;2023-03-04T06:08:33;83682.66;;;-146.98;95.59
28432;BME280;15664;51.302;7.744;2023-03-04T06:10:59;83694.88;;;-146.98;95.77
28432;BME280;15664;51.302;7.744;2023-03-04T06:13:26;83682.66;;;-146.98;95.83
28432;BME280;15664;51.302;7.744;2023-03-04T06:15:56;83658.19;;;-146.98;95.76
28432;BME280;15664;51.302;7.744;2023-03-04T06:18:22;83662.28;;;-146.98;95.62
28432;BME280;15664;51.302;7.744;2023-03-04T06:20:49;83670.44;;;-146.98;95.76
28432;BME280;15664;51.302;7.744;2023-03-04T06:23:14;83698.94;;;-146.98;96.08
28432;BME280;15664;51.302;7.744;2023-03-04T06:25:39;83684.69;;;-146.98;96.40
28432;BME280;15664;51.302;7.744;2023-03-04T06:28:05;83676.53;;;-146.98;96.92
28432;BME280;15664;51.302;7.744;2023-03-04T06:30:31;83680.59;;;-146.98;97.26
28432;BME280;15664;51.302;7.744;2023-03-04T06:32:56;83692.81;;;-146.98;97.40
28432;BME280;15664;51.302;7.744;2023-03-04T06:35:22;83688.75;;;-146.98;97.51
28432;BME280;15664;51.302;7.744;2023-03-04T06:37:47;83692.81;;;-146.98;97.44
28432;BME280;15664;51.302;7.744;2023-03-04T06:40:13;83654.13;;;-146.98;97.21
28432;BME280;15664;51.302;7.744;2023-03-04T06:42:39;83670.44;;;-146.98;96.70
28432;BME280;15664;51.302;7.744;2023-03-04T06:45:06;83739.66;;;-146.98;96.42
28432;BME280;15664;51.302;7.744;2023-03-04T06:47:31;83668.38;;;-146.98;96.56
28432;BME280;15664;51.302;7.744;2023-03-04T06:49:57;83639.88;;;-146.98;96.73
28432;BME280;15664;51.302;7.744;2023-03-04T06:52:23;83676.53;;;-146.98;97.04
28432;BME280;15664;51.302;7.744;2023-03-04T06:54:48;83664.31;;;-146.98;97.46
28432;BME280;15664;51.302;7.744;2023-03-04T06:57:14;83635.81;;;-146.98;98.01
28432;BME280;15664;51.302;7.744;2023-03-04T06:59:40;83639.88;;;-146.98;98.54
28432;BME280;15664;51.302;7.744;2023-03-04T07:02:05;83631.72;;;-146.98;98.98
28432;BME280;15664;51.302;7.744;2023-03-04T07:04:31;83658.19;;;-146.98;99.53
28432;BME280;15664;51.302;7.744;2023-03-04T07:06:57;83707.09;;;-146.98;99.58
28432;BME280;15664;51.302;7.744;2023-03-04T07:09:23;83711.16;;;-146.98;99.72
28432;BME280;15664;51.302;7.744;2023-03-04T07:11:48;83672.47;;;-146.98;99.89
28432;BME280;15664;51.302;7.744;2023-03-04T07:14:14;83658.19;;;-146.98;100.00
28432;BME280;15664;51.302;7.744;2023-03-04T07:16:39;83707.09;;;-146.98;100.00
28432;BME280;15664;51.302;7.744;2023-03-04T07:19:04;83678.56;;;-146.98;100.00
28432;BME280;15664;51.302;7.744;2023-03-04T07:21:30;83692.81;;;-146.98;100.00
28432;BME280;15664;51.302;7.744;2023-03-04T07:23:55;83633.75;;;-146.98;100.00
28432;BME280;15664;51.302;7.744;2023-03-04T07:26:21;83696.91;;;-146.98;100.00
28432;BME280;15664;51.302;7.744;2023-03-04T07:28:46;83707.09;;;-146.98;100.00
28432;BME280;15664;51.302;7.744;2023-03-04T07:31:27;83682.66;;;-146.98;100.00
28432;BME280;15664;51.302;7.744;2023-03-04T07:33:59;83719.31;;;-146.98;100.00
28432;BME280;15664;51.302;7.744;2023-03-04T07:36:25;83705.03;;;-146.98;100.00
28432;BME280;15664;51.302;7.744;2023-03-04T07:38:51;83656.16;;;-146.98;100.00
28432;BME280;15664;51.302;7.744;2023-03-04T07:41:19;83692.81;;;-146.98;100.00
28432;BME280;15664;51.302;7.744;2023-03-04T07:43:46;83662.28;;;-146.98;100.00
28432;BME280;15664;51.302;7.744;2023-03-04T07:46:12;83686.72;;;-146.98;100.00
28432;BME280;15664;51.302;7.744;2023-03-04T07:48:38;83674.50;;;-146.98;100.00
28432;BME280;15664;51.302;7.744;2023-03-04T07:51:13;83656.16;;;-146.98;100.00
28432;BME280;15664;51.302;7.744;2023-03-04T07:53:41;83678.56;;;-146.98;100.00
28432;BME280;15664;51.302;7.744;2023-03-04T07:56:10;83731.53;;;-146.98;100.00
28432;BME280;15664;51.302;7.744;2023-03-04T07:58:37;83639.88;;;-146.98;100.00
28432;BME280;15664;51.302;7.744;2023-03-04T08:01:12;83645.97;;;-146.98;100.00
28432;BME280;15664;51.302;7.744;2023-03-04T08:03:39;83637.84;;;-146.98;100.00
28432;BME280;15664;51.302;7.744;2023-03-04T08:06:10;83678.56;;;-146.98;100.00
28432;BME280;15664;51.302;7.744;2023-03-04T08:08:36;83645.97;;;-146.98;100.00
28432;BME280;15664;51.302;7.744;2023-03-04T08:11:14;83666.34;;;-146.98;100.00
28432;BME280;15664;51.302;7.744;2023-03-04T08:13:40;83650.06;;;-146.98;100.00
28432;BME280;15664;51.302;7.744;2023-03-04T08:16:06;83674.50;;;-146.98;100.00
28432;BME280;15664;51.302;7.744;2023-03-04T08:18:32;83658.19;;;-146.98;100.00
28432;BME280;15664;51.302;7.744;2023-03-04T08:20:58;83707.09;;;-146.98;100.00
28432;BME280;15664;51.302;7.744;2023-03-04T08:23:24;83672.47;;;-146.98;100.00
28432;BME280;15664;51.302;7.744;2023-03-04T08:25:49;83713.19;;;-146.98;100.00
28432;BME280;15664;51.302;7.744;2023-03-04T08:28:15;83678.56;;;-146.98;100.00
28432;BME280;15664;51.302;7.744;2023-03-04T08:30:41;83670.44;;;-146.98;100.00
28432;BME280;15664;51.302;7.744;2023-03-04T08:33:08;83645.97;;;-146.98;100.00
28432;BME280;15664;51.302;7.744;2023-03-04T08:35:38;83654.13;;;-146.98;100.00
28432;BME280;15664;51.302;7.744;2023-03-04T08:38:04;83658.19;;;-146.98;100.00
28432;BME280;15664;51.302;7.744;2023-03-04T08:40:31;83662.28;;;-146.98;100.00
28432;BME280;15664;51.302;7.744;2023-03-04T08:42:57;83617.47;;;-146.98;100.00
28432;BME280;15664;51.302;7.744;2023-03-04T08:45:22;83643.94;;;-146.98;100.00
28432;BME280;15664;51.302;7.744;2023-03-04T08:47:49;83690.78;;;-146.98;100.00
28432;BME280;15664;51.302;7.744;2023-03-04T08:50:15;83639.88;;;-146.98;100.00
28432;BME280;15664;51.302;7.744;2023-03-04T08:52:41;83645.97;;;-146.98;100.00
28432;BME280;15664;51.302;7.744;2023-03-04T08:55:06;83664.31;;;-146.98;100.00
28432;BME280;15664;51.302;7.744;2023-03-04T08:57:32;83595.06;;;-146.98;100.00
28432;BME280;15664;51.302;7.744;2023-03-04T08:59:57;83588.97;;;-146.98;100.00
28432;BME280;15664;51.302;7.744;2023-03-04T09:02:23;83599.13;;;-146.98;100.00
28432;BME280;15664;51.302;7.744;2023-03-04T09:04:48;83584.88;;;-146.98;99.71
28432;BME280;15664;51.302;7.744;2023-03-04T09:07:14;83556.38;;;-146.98;98.98
28432;BME280;15664;51.302;7.744;2023-03-04T09:09:39;83605.25;;;-146.98;98.36
28432;BME280;15664;51.302;7.744;2023-03-04T09:12:05;83584.88;;;-146.98;98.49
28432;BME280;15664;51.302;7.744;2023-03-04T09:14:31;83562.47;;;-146.98;98.68
28432;BME280;15664;51.302;7.744;2023-03-04T09:17:01;83544.16;;;-146.98;97.14
28432;BME280;15664;51.302;7.744;2023-03-04T09:19:27;83615.44;;;-146.98;96.81
28432;BME280;15664;51.302;7.744;2023-03-04T09:21:52;83548.22;;;-146.98;96.09
28432;BME280;15664;51.302;7.744;2023-03-04T09:24:20;83576.75;;;-146.98;95.39
28432;BME280;15664;51.302;7.744;2023-03-04T09:26:49;83497.31;;;-146.98;94.56
28432;BME280;15664;51.302;7.744;2023-03-04T09:29:15;83562.47;;;-146.98;93.62
28432;BME280;15664;51.302;7.744;2023-03-04T09:31:41;83503.41;;;-146.98;93.85
28432;BME280;15664;51.302;7.744;2023-03-04T09:34:07;83507.50;;;-146.98;93.33
28432;BME280;15664;51.302;7.744;2023-03-04T09:36:32;83513.59;;;-146.98;93.31
28432;BME280;15664;51.302;7.744;2023-03-04T09:38:59;83525.81;;;-146.98;93.46
28432;BME280;15664;51.302;7.744;2023-03-04T09:44:09;83538.03;;;-146.98;96.91
28432;BME280;15664;51.302;7.744;2023-03-04T09:46:38;83617.47;;;-146.98;100.00
28432;BME280;15664;51.302;7.744;2023-03-04T09:49:05;83576.75;;;-146.98;100.00
28432;BME280;15664;51.302;7.744;2023-03-04T09:51:43;83588.97;;;-146.98;100.00
28432;BME280;15664;51.302;7.744;2023-03-04T09:56:59;83650.06;;;-146.98;100.00
28432;BME280;15664;51.302;7.744;2023-03-04T09:59:32;83562.47;;;-146.98;100.00
28432;BME280;15664;51.302;7.744;2023-03-04T10:02:06;83621.53;;;-146.98;100.00
28432;BME280;15664;51.302;7.744;2023-03-04T10:04:41;83593.03;;;-146.98;100.00
28432;BME280;15664;51.302;7.744;2023-03-04T10:07:18;83515.63;;;-146.98;100.00
28432;BME280;15664;51.302;7.744;2023-03-04T10:09:50;83538.03;;;-146.98;100.00
28432;BME280;15664;51.302;7.744;2023-03-04T10:12:22;83603.22;;;-146.98;100.00
28432;BME280;15664;51.302;7.744;2023-03-04T10:15:38;83613.41;;;-146.98;100.00
28432;BME280;15664;51.302;7.744;2023-03-04T10:18:21;83658.19;;;-146.98;100.00
28432;BME280;15664;51.302;7.744;2023-03-04T10:21:03;83519.72;;;-146.98;100.00
28432;BME280;15664;51.302;7.744;2023-03-04T10:23:32;83568.59;;;-146.98;100.00
28432;BME280;15664;51.302;7.744;2023-03-04T10:26:01;83588.97;;;-146.98;100.00
28432;BME280;15664;51.302;7.744;2023-03-04T10:28:35;83582.84;;;-146.98;100.00
28432;BME280;15664;51.302;7.744;2023-03-04T10:33:31;83552.31;;;-146.98;100.00
28432;BME280;15664;51.302;7.744;2023-03-04T10:36:02;83591.00;;;-146.98;100.00
28432;BME280;15664;51.302;7.744;2023-03-04T10:38:34;83605.25;;;-146.98;100.00
28432;BME280;15664;51.302;7.744;2023-03-04T10:41:00;83568.59;;;-146.98;100.00
28432;BME280;15664;51.302;7.744;2023-03-04T10:43:26;83607.28;;;-146.98;100.00
28432;BME280;15664;51.302;7.744;2023-03-04T10:45:58;83617.47;;;-146.98;100.00
28432;BME280;15664;51.302;7.744;2023-03-04T10:48:27;83556.38;;;-146.98;100.00
28432;BME280;15664;51.302;7.744;2023-03-04T10:50:53;83609.31;;;-146.98;100.00
28432;BME280;15664;51.302;7.744;2023-03-04T10:53:32;83611.38;;;-146.98;100.00
28432;BME280;15664;51.302;7.744;2023-03-04T10:55:58;83670.44;;;-146.98;100.00
28432;BME280;15664;51.302;7.744;2023-03-04T10:58:24;83635.81;;;-146.98;100.00
28432;BME280;15664;51.302;7.744;2023-03-04T11:01:02;83639.88;;;-146.98;100.00
28432;BME280;15664;51.302;7.744;2023-03-04T11:03:34;83615.44;;;-146.98;100.00
28432;BME280;15664;51.302;7.744;2023-03-04T11:06:17;83578.78;;;-146.98;100.00
28432;BME280;15664;51.302;7.744;2023-03-04T11:08:44;83633.75;;;-146.98;100.00
28432;BME280;15664;51.302;7.744;2023-03-04T11:13:51;83593.03;;;-146.98;100.00
28432;BME280;15664;51.302;7.744;2023-03-04T11:16:25;83566.56;;;-146.98;100.00
28432;BME280;15664;51.302;7.744;2023-03-04T11:18:52;83564.53;;;-146.98;100.00
28432;BME280;15664;51.302;7.744;2023-03-04T11:21:22;83566.56;;;-146.98;100.00
28432;BME280;15664;51.302;7.744;2023-03-04T11:26:18;83593.03;;;-146.98;100.00
28432;BME280;15664;51.302;7.744;2023-03-04T11:29:29;83554.34;;;-146.98;100.00
28432;BME280;15664;51.302;7.744;2023-03-04T11:40:03;83593.03;;;-146.98;100.00
28432;BME280;15664;51.302;7.744;2023-03-04T11:42:34;83572.66;;;-146.98;100.00
28432;BME280;15664;51.302;7.744;2023-03-04T11:45:10;83566.56;;;-146.98;100.00
28432;BME280;15664;51.302;7.744;2023-03-04T11:48:00;83580.81;;;-146.98;100.00
28432;BME280;15664;51.302;7.744;2023-03-04T11:50:43;83505.47;;;-146.98;100.00
28432;BME280;15664;51.302;7.744;2023-03-04T11:53:43;83605.25;;;-146.98;100.00
28432;BME280;15664;51.302;7.744;2023-03-04T11:56:26;83625.63;;;-146.98;100.00
28432;BME280;15664;51.302;7.744;2023-03-04T11:59:06;83621.53;;;-146.98;100.00
28432;BME280;15664;51.302;7.744;2023-03-04T12:07:12;83550.25;;;-146.98;100.00
28432;BME280;15664;51.302;7.744;2023-03-04T12:09:56;83558.41;;;-146.98;100.00
28432;BME280;15664;51.302;7.744;2023-03-04T12:15:12;83546.19;;;-146.98;100.00
28432;BME280;15664;51.302;7.744;2023-03-04T12:18:04;83519.72;;;-146.98;100.00
28432;BME280;15664;51.302;7.744;2023-03-04T12:20:58;83588.97;;;-146.98;100.00
28432;BME280;15664;51.302;7.744;2023-03-04T12:23:52;83586.91;;;-146.98;100.00
28432;BME280;15664;51.302;7.744;2023-03-04T12:26:31;83556.38;;;-146.98;100.00
28432;BME280;15664;51.302;7.744;2023-03-04T12:29:07;83643.94;;;-146.98;100.00
28432;BME280;15664;51.302;7.744;2023-03-04T12:31:40;83556.38;;;-146.98;100.00
28432;BME280;15664;51.302;7.744;2023-03-04T12:36:49;83533.97;;;-146.98;100.00
28432;BME280;15664;51.302;7.744;2023-03-04T12:39:39;83529.91;;;-146.98;100.00
28432;BME280;15664;51.302;7.744;2023-03-04T12:45:14;83552.31;;;-146.98;100.00
28432;BME280;15664;51.302;7.744;2023-03-04T12:53:40;83542.13;;;-146.98;100.00
28432;BME280;15664;51.302;7.744;2023-03-04T12:56:21;83544.16;;;-146.98;100.00
28432;BME280;15664;51.302;7.744;2023-03-04T12:58:47;83568.59;;;-146.98;100.00
28432;BME280;15664;51.302;7.744;2023-03-04T13:01:35;83529.91;;;-146.98;100.00
28432;BME280;15664;51.302;7.744;2023-03-04T13:04:36;83552.31;;;-146.98;100.00
28432;BME280;15664;51.302;7.744;2023-03-04T13:07:20;83474.91;;;-146.98;100.00
28432;BME280;15664;51.302;7.744;2023-03-04T13:10:00;83564.53;;;-146.98;100.00
28432;BME280;15664;51.302;7.744;2023-03-04T13:12:45;83548.22;;;-146.98;100.00
28432;BME280;15664;51.302;7.744;2023-03-04T13:17:55;83552.31;;;-146.98;100.00
28432;BME280;15664;51.302;7.744;2023-03-04T13:20:30;83548.22;;;-146.98;100.00
28432;BME280;15664;51.302;7.744;2023-03-04T13:22:58;83493.25;;;-146.98;100.00
28432;BME280;15664;51.302;7.744;2023-03-04T13:25:41;83599.13;;;-146.98;100.00
28432;BME280;15664;51.302;7.744;2023-03-04T13:38:37;83548.22;;;-146.98;100.00